createdAt,value
2023-04-22T00:00:09.749Z,100.00
2023-04-22T00:02:38.848Z,100.00
2023-04-22T00:05:09.845Z,100.00
2023-04-22T00:07:37.993Z,100.00
2023-04-22T00:10:06.528Z,100.00
2023-04-22T00:12:34.327Z,100.00
2023-04-22T00:15:02.379Z,100.00
2023-04-22T00:17:30.274Z,100.00
2023-04-22T00:19:58.336Z,100.00
2023-04-22T00:22:27.433Z,100.00
2023-04-22T00:24:55.307Z,100.00
2023-04-22T00:27:23.129Z,100.00
2023-04-22T00:29:51.419Z,100.00
2023-04-22T00:32:22.396Z,100.00
2023-04-22T00:34:50.379Z,100.00
2023-04-22T00:37:18.281Z,100.00
2023-04-22T00:39:47.480Z,100.00
2023-04-22T00:42:15.930Z,100.00
2023-04-22T00:44:43.766Z,100.00
2023-04-22T00:47:11.797Z,100.00
2023-04-22T00:49:40.858Z,100.00
2023-04-22T00:52:09.297Z,100.00
2023-04-22T00:54:37.324Z,100.00
2023-04-22T00:57:07.024Z,100.00
2023-04-22T00:59:35.668Z,100.00
2023-04-22T01:02:05.360Z,100.00
2023-04-22T01:04:36.552Z,100.00
2023-04-22T01:07:04.492Z,100.00
2023-04-22T01:09:32.699Z,100.00
2023-04-22T01:12:01.515Z,100.00
2023-04-22T01:14:30.977Z,100.00
2023-04-22T01:16:58.863Z,100.00
2023-04-22T01:19:29.525Z,100.00
2023-04-22T01:21:59.807Z,100.00
2023-04-22T01:24:29.256Z,100.00
2023-04-22T01:26:57.357Z,100.00
2023-04-22T01:29:25.684Z,100.00
2023-04-22T01:31:53.928Z,100.00
2023-04-22T01:34:21.950Z,100.00
2023-04-22T01:36:50.574Z,100.00
2023-04-22T01:39:19.736Z,100.00
2023-04-22T01:41:50.010Z,100.00
2023-04-22T01:44:21.514Z,100.00
2023-04-22T01:46:49.621Z,100.00
2023-04-22T01:49:17.940Z,100.00
2023-04-22T01:51:45.792Z,100.00
2023-04-22T01:54:14.703Z,100.00
2023-04-22T01:56:44.237Z,100.00
2023-04-22T01:59:14.353Z,100.00
2023-04-22T02:01:42.408Z,100.00
2023-04-22T02:04:10.319Z,100.00
2023-04-22T02:06:38.109Z,100.00
2023-04-22T02:09:08.251Z,100.00
2023-04-22T02:11:36.527Z,100.00
2023-04-22T02:14:04.723Z,100.00
2023-04-22T02:16:34.844Z,100.00
2023-04-22T02:19:02.612Z,100.00
2023-04-22T02:21:32.482Z,100.00
2023-04-22T02:24:00.208Z,100.00
2023-04-22T02:26:30.999Z,100.00
2023-04-22T02:29:59.026Z,100.00
2023-04-22T02:32:29.181Z,100.00
2023-04-22T02:34:56.948Z,100.00
2023-04-22T02:37:24.604Z,100.00
2023-04-22T02:39:52.289Z,100.00
2023-04-22T02:42:19.919Z,100.00
2023-04-22T02:44:47.843Z,100.00
2023-04-22T02:47:15.555Z,100.00
2023-04-22T02:49:44.596Z,100.00
2023-04-22T02:52:12.518Z,100.00
2023-04-22T02:54:40.299Z,100.00
2023-04-22T02:57:08.109Z,100.00
2023-04-22T02:59:36.125Z,100.00
2023-04-22T03:02:06.705Z,100.00
2023-04-22T03:04:56.250Z,100.00
2023-04-22T03:07:24.230Z,100.00
2023-04-22T03:09:51.921Z,100.00
2023-04-22T03:12:20.221Z,100.00
2023-04-22T03:14:48.078Z,100.00
2023-04-22T03:17:16.276Z,100.00
2023-04-22T03:19:44.176Z,100.00
2023-04-22T03:22:13.955Z,100.00
2023-04-22T03:24:41.813Z,100.00
2023-04-22T03:27:11.139Z,100.00
2023-04-22T03:29:39.149Z,100.00
2023-04-22T03:32:07.121Z,100.00
2023-04-22T03:34:37.404Z,100.00
2023-04-22T03:37:07.137Z,100.00
2023-04-22T03:39:36.469Z,100.00
2023-04-22T03:42:04.890Z,100.00
2023-04-22T03:44:34.035Z,100.00
2023-04-22T03:47:03.206Z,100.00
2023-04-22T03:49:37.016Z,100.00
2023-04-22T03:52:05.374Z,100.00
2023-04-22T03:54:36.035Z,100.00
2023-04-22T03:57:03.725Z,100.00
2023-04-22T03:59:31.506Z,100.00
2023-04-22T04:01:59.324Z,100.00
2023-04-22T04:04:28.149Z,100.00
2023-04-22T04:07:00.347Z,100.00
2023-04-22T04:09:29.013Z,100.00
2023-04-22T04:11:59.079Z,100.00
2023-04-22T04:14:31.063Z,100.00
2023-04-22T04:16:59.843Z,100.00
2023-04-22T04:19:31.012Z,100.00
2023-04-22T04:21:59.101Z,100.00
2023-04-22T04:24:28.755Z,100.00
2023-04-22T04:27:05.055Z,100.00
2023-04-22T04:29:41.549Z,100.00
2023-04-22T04:32:14.776Z,100.00
2023-04-22T04:34:43.827Z,100.00
2023-04-22T04:37:14.668Z,100.00
2023-04-22T04:39:55.564Z,100.00
2023-04-22T04:42:30.328Z,100.00
2023-04-22T04:45:03.508Z,100.00
2023-04-22T04:47:33.836Z,100.00
2023-04-22T04:50:12.498Z,100.00
2023-04-22T04:52:40.730Z,100.00
2023-04-22T04:55:09.586Z,100.00
2023-04-22T04:57:39.472Z,100.00
2023-04-22T05:00:08.861Z,100.00
2023-04-22T05:02:36.967Z,100.00
2023-04-22T05:05:05.210Z,100.00
2023-04-22T05:07:33.334Z,100.00
2023-04-22T05:10:02.305Z,100.00
2023-04-22T05:12:30.725Z,100.00
2023-04-22T05:15:00.337Z,100.00
2023-04-22T05:17:29.364Z,100.00
2023-04-22T05:19:57.735Z,100.00
2023-04-22T05:22:25.764Z,100.00
2023-04-22T05:24:54.905Z,100.00
2023-04-22T05:27:23.350Z,100.00
2023-04-22T05:29:51.445Z,100.00
2023-04-22T05:32:27.518Z,100.00
2023-04-22T05:34:55.464Z,100.00
2023-04-22T05:37:23.688Z,100.00
2023-04-22T05:39:53.015Z,100.00
2023-04-22T05:42:22.431Z,100.00
2023-04-22T05:44:51.189Z,100.00
2023-04-22T05:47:19.362Z,100.00
2023-04-22T05:49:48.780Z,100.00
2023-04-22T05:52:20.857Z,100.00
2023-04-22T05:54:59.836Z,100.00
2023-04-22T05:57:28.425Z,100.00
2023-04-22T05:59:56.328Z,100.00
2023-04-22T06:02:27.839Z,100.00
2023-04-22T06:04:59.816Z,100.00
2023-04-22T06:07:29.051Z,100.00
2023-04-22T06:10:05.175Z,100.00
2023-04-22T06:12:34.719Z,100.00
2023-04-22T06:15:02.986Z,100.00
2023-04-22T06:17:31.944Z,100.00
2023-04-22T06:20:01.720Z,100.00
2023-04-22T06:22:31.819Z,100.00
2023-04-22T06:24:59.504Z,100.00
2023-04-22T06:27:27.888Z,100.00
2023-04-22T06:29:55.607Z,100.00
2023-04-22T06:32:33.019Z,100.00
2023-04-22T06:35:02.376Z,100.00
2023-04-22T06:37:30.594Z,100.00
2023-04-22T06:39:58.430Z,100.00
2023-04-22T06:42:41.873Z,100.00
2023-04-22T06:45:28.777Z,100.00
2023-04-22T06:48:15.018Z,100.00
2023-04-22T06:51:07.058Z,100.00
2023-04-22T06:53:35.018Z,100.00
2023-04-22T06:56:02.853Z,100.00
2023-04-22T06:58:31.029Z,100.00
2023-04-22T07:00:59.327Z,100.00
2023-04-22T07:03:28.009Z,100.00
2023-04-22T07:06:02.966Z,100.00
2023-04-22T07:08:35.132Z,100.00
2023-04-22T07:11:03.645Z,100.00
2023-04-22T07:14:02.769Z,100.00
2023-04-22T07:16:34.530Z,100.00
2023-04-22T07:19:02.647Z,100.00
2023-04-22T07:21:32.631Z,100.00
2023-04-22T07:24:02.389Z,100.00
2023-04-22T07:26:34.532Z,100.00
2023-04-22T07:29:02.445Z,100.00
2023-04-22T07:31:31.840Z,98.71
2023-04-22T07:33:59.918Z,96.91
2023-04-22T07:36:28.231Z,90.51
2023-04-22T07:38:56.090Z,91.44
2023-04-22T07:41:25.151Z,92.75
2023-04-22T07:43:52.881Z,93.45
2023-04-22T07:46:21.059Z,99.87
2023-04-22T07:48:49.439Z,97.56
2023-04-22T07:51:17.975Z,97.11
2023-04-22T07:53:45.711Z,100.00
2023-04-22T07:56:16.849Z,94.01
2023-04-22T07:58:46.079Z,89.19
2023-04-22T08:01:13.788Z,91.90
2023-04-22T08:03:41.883Z,89.93
2023-04-22T08:06:09.833Z,89.60
2023-04-22T08:08:37.714Z,87.27
2023-04-22T08:11:05.939Z,86.99
2023-04-22T08:13:34.600Z,88.03
2023-04-22T08:16:04.088Z,88.05
2023-04-22T08:18:31.983Z,87.41
2023-04-22T08:21:00.231Z,91.60
2023-04-22T08:23:28.653Z,86.84
2023-04-22T08:25:56.751Z,85.00
2023-04-22T08:28:24.519Z,83.27
2023-04-22T08:30:52.248Z,83.06
2023-04-22T08:33:21.562Z,83.64
2023-04-22T08:35:49.857Z,80.39
2023-04-22T08:38:17.565Z,79.66
2023-04-22T08:40:47.385Z,81.50
2023-04-22T08:43:16.588Z,80.99
2023-04-22T08:45:46.001Z,81.68
2023-04-22T08:48:14.520Z,82.92
2023-04-22T08:50:43.946Z,81.79
2023-04-22T08:53:12.213Z,82.62
2023-04-22T08:55:41.562Z,79.54
2023-04-22T08:58:09.805Z,79.37
2023-04-22T09:00:37.996Z,76.46
2023-04-22T09:03:07.693Z,77.14
2023-04-22T09:05:38.515Z,77.26
2023-04-22T09:08:08.823Z,75.69
2023-04-22T09:10:39.140Z,73.80
2023-04-22T09:13:07.827Z,74.57
2023-04-22T09:15:35.819Z,76.65
2023-04-22T09:18:05.511Z,75.85
2023-04-22T09:20:33.222Z,71.22
2023-04-22T09:23:04.360Z,74.25
2023-04-22T09:25:36.332Z,70.60
2023-04-22T09:28:04.511Z,72.12
2023-04-22T09:30:34.132Z,74.32
2023-04-22T09:33:04.287Z,71.49
2023-04-22T09:35:33.765Z,72.33
2023-04-22T09:38:03.130Z,70.96
2023-04-22T09:40:33.284Z,70.64
2023-04-22T09:43:03.041Z,72.88
2023-04-22T09:45:32.984Z,72.75
2023-04-22T09:48:04.131Z,71.46
2023-04-22T09:50:31.874Z,74.12
2023-04-22T09:53:01.470Z,71.48
2023-04-22T09:55:31.741Z,70.72
2023-04-22T09:58:07.473Z,72.60
2023-04-22T10:00:37.779Z,71.73
2023-04-22T10:03:08.032Z,68.90
2023-04-22T10:05:38.794Z,65.83
2023-04-22T10:08:08.175Z,64.97
2023-04-22T10:10:36.782Z,64.43
2023-04-22T10:13:06.914Z,60.88
2023-04-22T10:15:37.607Z,62.40
2023-04-22T10:18:08.811Z,62.39
2023-04-22T10:20:38.831Z,61.34
2023-04-22T10:23:13.305Z,65.58
2023-04-22T10:25:41.733Z,63.09
2023-04-22T10:28:12.145Z,63.88
2023-04-22T10:30:41.161Z,64.62
2023-04-22T10:33:42.032Z,63.13
2023-04-22T10:36:16.625Z,62.71
2023-04-22T10:39:18.082Z,62.81
2023-04-22T10:41:53.576Z,62.92
2023-04-22T10:44:23.596Z,62.00
2023-04-22T10:46:59.630Z,60.56
2023-04-22T10:49:30.285Z,61.58
2023-04-22T10:52:01.091Z,61.14
2023-04-22T10:54:58.410Z,60.71
2023-04-22T10:57:37.827Z,59.83
2023-04-22T11:00:25.529Z,59.09
2023-04-22T11:02:56.127Z,60.98
2023-04-22T11:05:27.176Z,59.85
2023-04-22T11:07:56.733Z,60.14
2023-04-22T11:10:37.227Z,56.42
2023-04-22T11:13:07.066Z,53.95
2023-04-22T11:15:38.662Z,55.77
2023-04-22T11:18:11.062Z,55.95
2023-04-22T11:20:39.088Z,54.43
2023-04-22T11:23:07.076Z,53.57
2023-04-22T11:25:34.782Z,53.04
2023-04-22T11:28:02.600Z,51.48
2023-04-22T11:30:31.562Z,54.14
2023-04-22T11:33:01.892Z,52.94
2023-04-22T11:35:32.612Z,52.35
2023-04-22T11:38:02.703Z,52.19
2023-04-22T11:40:35.374Z,53.41
2023-04-22T11:43:07.072Z,49.70
2023-04-22T11:45:36.259Z,50.36
2023-04-22T11:48:07.701Z,49.45
2023-04-22T11:50:36.989Z,51.13
2023-04-22T11:53:06.061Z,50.25
2023-04-22T11:55:36.484Z,50.57
2023-04-22T11:58:08.350Z,47.63
2023-04-22T12:00:38.034Z,49.03
2023-04-22T12:03:15.265Z,51.29
2023-04-22T12:05:44.950Z,51.56
2023-04-22T12:08:14.509Z,50.02
2023-04-22T12:10:44.169Z,49.17
2023-04-22T12:13:18.605Z,48.39
2023-04-22T12:15:47.102Z,47.88
2023-04-22T12:18:16.143Z,47.59
2023-04-22T12:20:44.166Z,47.46
2023-04-22T12:23:15.835Z,49.95
2023-04-22T12:25:44.960Z,50.29
2023-04-22T12:28:14.225Z,49.95
2023-04-22T12:30:42.327Z,50.82
2023-04-22T12:33:10.277Z,52.57
2023-04-22T12:35:39.432Z,52.33
2023-04-22T12:38:07.482Z,52.81
2023-04-22T12:40:35.196Z,52.94
2023-04-22T12:43:05.967Z,53.18
2023-04-22T12:45:34.009Z,53.44
2023-04-22T12:48:02.399Z,55.31
2023-04-22T12:50:30.299Z,54.48
2023-04-22T12:52:59.378Z,53.50
2023-04-22T12:55:27.447Z,53.69
2023-04-22T12:57:55.744Z,53.36
2023-04-22T13:00:24.340Z,53.81
2023-04-22T13:02:52.731Z,54.08
2023-04-22T13:05:21.584Z,54.63
2023-04-22T13:07:59.675Z,55.14
2023-04-22T13:10:35.712Z,57.15
2023-04-22T13:13:16.671Z,58.07
2023-04-22T13:15:45.978Z,57.07
2023-04-22T13:18:13.759Z,55.43
2023-04-22T13:20:42.413Z,56.05
2023-04-22T13:23:10.670Z,57.25
2023-04-22T13:25:39.843Z,59.17
2023-04-22T13:28:07.723Z,56.89
2023-04-22T13:30:35.477Z,56.66
2023-04-22T13:33:03.442Z,57.14
2023-04-22T13:35:32.064Z,57.73
2023-04-22T13:38:00.160Z,56.77
2023-04-22T13:40:28.231Z,56.91
2023-04-22T13:42:57.565Z,58.87
2023-04-22T13:45:26.130Z,57.18
2023-04-22T13:47:54.865Z,53.59
2023-04-22T13:50:23.752Z,53.34
2023-04-22T13:52:51.555Z,52.88
2023-04-22T13:55:19.501Z,52.31
2023-04-22T13:57:47.623Z,53.89
2023-04-22T14:00:17.684Z,52.09
2023-04-22T14:02:45.678Z,53.40
2023-04-22T14:05:14.084Z,53.74
2023-04-22T14:07:41.869Z,54.52
2023-04-22T14:10:12.062Z,54.44
2023-04-22T14:12:40.677Z,54.37
2023-04-22T14:15:10.923Z,55.11
2023-04-22T14:17:40.252Z,55.71
2023-04-22T14:20:11.043Z,56.96
2023-04-22T14:22:39.470Z,56.92
2023-04-22T14:25:08.558Z,56.75
2023-04-22T14:27:36.559Z,56.16
2023-04-22T14:30:05.792Z,56.90
2023-04-22T14:32:34.103Z,56.84
2023-04-22T14:35:03.523Z,56.56
2023-04-22T14:37:32.144Z,56.59
2023-04-22T14:40:00.032Z,57.98
2023-04-22T14:42:28.931Z,56.27
2023-04-22T14:44:56.668Z,56.45
2023-04-22T14:47:24.525Z,57.57
2023-04-22T14:49:53.734Z,58.02
2023-04-22T14:52:23.192Z,57.38
2023-04-22T14:54:52.185Z,58.38
2023-04-22T14:57:20.004Z,58.75
2023-04-22T14:59:48.065Z,59.31
2023-04-22T15:02:16.812Z,58.18
2023-04-22T15:04:45.264Z,58.45
2023-04-22T15:07:13.401Z,57.73
2023-04-22T15:09:43.095Z,57.51
2023-04-22T15:12:11.226Z,58.26
2023-04-22T15:14:39.966Z,57.25
2023-04-22T15:17:08.198Z,57.77
2023-04-22T15:19:36.359Z,58.61
2023-04-22T15:22:04.035Z,60.18
2023-04-22T15:24:32.045Z,61.52
2023-04-22T15:27:02.890Z,62.23
2023-04-22T15:29:32.370Z,62.44
2023-04-22T15:32:00.205Z,62.64
2023-04-22T15:34:27.932Z,61.80
2023-04-22T15:36:55.762Z,61.07
2023-04-22T15:39:25.247Z,59.94
2023-04-22T15:41:53.357Z,60.92
2023-04-22T15:44:23.488Z,61.98
2023-04-22T15:46:52.966Z,60.84
2023-04-22T15:49:21.160Z,60.61
2023-04-22T15:51:48.938Z,59.47
2023-04-22T15:54:17.386Z,59.14
2023-04-22T15:56:45.423Z,60.35
2023-04-22T15:59:13.508Z,58.34
2023-04-22T16:01:45.861Z,60.19
2023-04-22T16:04:14.230Z,60.08
2023-04-22T16:06:42.282Z,60.54
2023-04-22T16:09:10.758Z,58.93
2023-04-22T16:11:38.773Z,59.05
2023-04-22T16:14:06.420Z,61.06
2023-04-22T16:16:34.795Z,60.59
2023-04-22T16:19:03.912Z,60.21
2023-04-22T16:21:32.399Z,60.55
2023-04-22T16:24:00.959Z,60.26
2023-04-22T16:26:29.064Z,62.11
2023-04-22T16:28:56.786Z,62.94
2023-04-22T16:31:25.125Z,63.11
2023-04-22T16:33:53.223Z,62.33
2023-04-22T16:36:22.750Z,61.42
2023-04-22T16:38:50.866Z,62.28
2023-04-22T16:41:19.033Z,63.63
2023-04-22T16:43:46.739Z,63.62
2023-04-22T16:46:14.716Z,64.53
2023-04-22T16:48:43.386Z,64.81
2023-04-22T16:51:11.917Z,65.88
2023-04-22T16:53:41.290Z,69.56
2023-04-22T16:56:08.985Z,70.77
2023-04-22T16:58:36.902Z,70.99
2023-04-22T17:01:05.328Z,72.12
2023-04-22T17:03:33.426Z,71.34
2023-04-22T17:06:01.484Z,67.23
2023-04-22T17:08:29.326Z,66.97
2023-04-22T17:10:58.769Z,66.96
2023-04-22T17:13:26.817Z,66.61
2023-04-22T17:15:54.827Z,65.86
2023-04-22T17:18:22.922Z,65.85
2023-04-22T17:20:50.718Z,65.72
2023-04-22T17:23:19.734Z,64.94
2023-04-22T17:25:47.788Z,63.73
2023-04-22T17:28:17.308Z,65.30
2023-04-22T17:30:45.191Z,62.65
2023-04-22T17:33:13.108Z,62.54
2023-04-22T17:35:41.882Z,62.66
2023-04-22T17:38:09.566Z,61.84
2023-04-22T17:40:37.404Z,61.77
2023-04-22T17:43:05.156Z,62.02
2023-04-22T17:45:35.053Z,62.88
2023-04-22T17:48:02.896Z,63.81
2023-04-22T17:50:30.889Z,64.20
2023-04-22T17:53:01.185Z,64.12
2023-04-22T17:55:30.310Z,65.11
2023-04-22T17:58:00.352Z,65.04
2023-04-22T18:00:28.309Z,65.71
2023-04-22T18:02:57.699Z,66.29
2023-04-22T18:05:26.994Z,66.44
2023-04-22T18:07:58.116Z,66.23
2023-04-22T18:10:25.974Z,66.69
2023-04-22T18:12:54.821Z,66.79
2023-04-22T18:15:23.433Z,66.42
2023-04-22T18:17:51.308Z,67.36
2023-04-22T18:20:21.844Z,67.21
2023-04-22T18:22:51.973Z,67.67
2023-04-22T18:25:21.688Z,68.20
2023-04-22T18:27:50.575Z,68.75
2023-04-22T18:30:18.424Z,69.68
2023-04-22T18:32:46.172Z,69.80
2023-04-22T18:35:15.788Z,69.19
2023-04-22T18:37:44.895Z,69.83
2023-04-22T18:40:13.718Z,70.13
2023-04-22T18:42:44.512Z,71.13
2023-04-22T18:45:12.841Z,71.56
2023-04-22T18:47:41.297Z,71.96
2023-04-22T18:50:09.723Z,72.12
2023-04-22T18:52:37.924Z,72.04
2023-04-22T18:55:07.648Z,72.82
2023-04-22T18:57:35.705Z,73.29
2023-04-22T19:00:05.517Z,73.18
2023-04-22T19:02:35.543Z,73.83
2023-04-22T19:05:06.339Z,73.82
2023-04-22T19:07:34.040Z,74.97
2023-04-22T19:10:01.919Z,75.16
2023-04-22T19:12:31.117Z,76.40
2023-04-22T19:15:00.210Z,77.11
2023-04-22T19:17:28.842Z,77.68
2023-04-22T19:19:56.603Z,78.15
2023-04-22T19:22:24.695Z,78.56
2023-04-22T19:24:52.559Z,78.99
2023-04-22T19:27:20.345Z,79.44
2023-04-22T19:29:51.680Z,80.39
2023-04-22T19:32:19.788Z,80.42
2023-04-22T19:34:50.007Z,81.27
2023-04-22T19:37:18.179Z,81.36
2023-04-22T19:39:45.982Z,81.73
2023-04-22T19:42:14.099Z,80.73
2023-04-22T19:44:46.396Z,81.15
2023-04-22T19:47:16.340Z,80.92
2023-04-22T19:49:44.883Z,81.19
2023-04-22T19:52:15.407Z,82.11
2023-04-22T19:54:47.671Z,81.75
2023-04-22T19:57:16.686Z,82.52
2023-04-22T19:59:46.976Z,82.52
2023-04-22T20:02:16.647Z,84.83
2023-04-22T20:04:47.319Z,85.79
2023-04-22T20:07:16.411Z,85.31
2023-04-22T20:09:46.260Z,87.15
2023-04-22T20:12:14.489Z,88.42
2023-04-22T20:14:43.292Z,89.44
2023-04-22T20:17:11.569Z,89.90
2023-04-22T20:19:41.116Z,93.93
2023-04-22T20:22:11.540Z,97.08
2023-04-22T20:24:40.955Z,99.63
2023-04-22T20:27:08.833Z,100.00
2023-04-22T20:29:38.165Z,100.00
2023-04-22T20:32:07.191Z,100.00
2023-04-22T20:34:35.993Z,100.00
2023-04-22T20:37:09.569Z,100.00
2023-04-22T20:39:38.776Z,100.00
2023-04-22T20:42:07.470Z,100.00
2023-04-22T20:44:35.709Z,100.00
2023-04-22T20:47:03.339Z,100.00
2023-04-22T20:49:31.241Z,100.00
2023-04-22T20:52:00.426Z,100.00
2023-04-22T20:54:30.396Z,100.00
2023-04-22T20:56:58.849Z,100.00
2023-04-22T20:59:26.565Z,100.00
2023-04-22T21:01:55.416Z,100.00
2023-04-22T21:04:23.994Z,100.00
2023-04-22T21:06:53.357Z,100.00
2023-04-22T21:09:22.784Z,100.00
2023-04-22T21:11:52.396Z,100.00
2023-04-22T21:14:22.141Z,100.00
2023-04-22T21:16:58.769Z,100.00
2023-04-22T21:19:27.355Z,100.00
2023-04-22T21:21:59.337Z,100.00
2023-04-22T21:24:28.416Z,100.00
2023-04-22T21:26:58.984Z,100.00
2023-04-22T21:29:27.191Z,100.00
2023-04-22T21:32:08.190Z,100.00
2023-04-22T21:34:38.615Z,100.00
2023-04-22T21:37:07.898Z,100.00
2023-04-22T21:39:36.747Z,100.00
2023-04-22T21:42:08.137Z,100.00
2023-04-22T21:44:37.751Z,100.00
2023-04-22T21:47:06.888Z,100.00
2023-04-22T21:49:34.936Z,100.00
2023-04-22T21:52:02.915Z,100.00
2023-04-22T21:54:30.655Z,100.00
2023-04-22T21:56:58.672Z,100.00
2023-04-22T21:59:27.842Z,100.00
2023-04-22T22:01:55.960Z,100.00
2023-04-22T22:04:23.703Z,100.00
2023-04-22T22:06:51.498Z,100.00
2023-04-22T22:09:19.227Z,100.00
2023-04-22T22:11:47.065Z,100.00
2023-04-22T22:14:14.834Z,100.00
2023-04-22T22:16:45.031Z,100.00
2023-04-22T22:19:13.895Z,100.00
2023-04-22T22:21:41.944Z,100.00
2023-04-22T22:24:10.477Z,100.00
2023-04-22T22:26:40.952Z,100.00
2023-04-22T22:29:15.066Z,100.00
2023-04-22T22:31:44.256Z,100.00
2023-04-22T22:34:12.361Z,100.00
2023-04-22T22:36:40.167Z,100.00
2023-04-22T22:39:10.101Z,100.00
2023-04-22T22:41:39.694Z,100.00
2023-04-22T22:44:08.688Z,100.00
2023-04-22T22:46:38.366Z,100.00
2023-04-22T22:49:07.489Z,100.00
2023-04-22T22:51:37.503Z,100.00
2023-04-22T22:54:05.831Z,100.00
2023-04-22T22:56:33.593Z,100.00
2023-04-22T22:59:01.442Z,100.00
2023-04-22T23:01:29.255Z,100.00
2023-04-22T23:03:57.228Z,100.00
2023-04-22T23:06:27.211Z,100.00
2023-04-22T23:08:54.890Z,100.00
2023-04-22T23:11:23.010Z,100.00
2023-04-22T23:13:51.054Z,100.00
2023-04-22T23:16:18.953Z,100.00
2023-04-22T23:18:47.694Z,100.00
2023-04-22T23:21:16.257Z,100.00
2023-04-22T23:23:46.234Z,100.00
2023-04-22T23:26:14.340Z,100.00
2023-04-22T23:28:42.717Z,100.00
2023-04-22T23:31:11.552Z,100.00
2023-04-22T23:33:43.157Z,100.00
2023-04-22T23:36:13.800Z,100.00
2023-04-22T23:38:41.797Z,100.00
2023-04-22T23:41:11.289Z,100.00
2023-04-22T23:43:39.061Z,100.00
2023-04-22T23:46:07.220Z,100.00
2023-04-22T23:48:35.968Z,100.00
2023-04-22T23:51:03.994Z,100.00
2023-04-22T23:53:31.911Z,100.00
2023-04-22T23:56:00.863Z,100.00
2023-04-22T23:58:30.426Z,100.00
